Time;durP1;ratioP1;P1;durP2;ratioP2;P2;SDS_P1;SDS_P2;PMS_P1;PMS_P2;Temp;Humidity;BMP_temperature;BMP_pressure;BME280_temperature;BME280_humidity;BME280_pressure;Samples;Min_cycle;Max_cycle;Signal;HPM_P1;HPM_P2
2021/10/20 00:02:05;;;;;;;3.70;2.60;;;;;;;2.42;80.60;96834.94;1769257;80;21029;-64
2021/10/20 00:04:32;;;;;;;4.90;3.00;;;;;;;2.38;80.03;96832.66;1769342;80;21640;-64
2021/10/20 00:06:59;;;;;;;4.20;2.90;;;;;;;2.29;79.67;96831.05;1771929;80;21095;-64
2021/10/20 00:09:26;;;;;;;5.03;2.97;;;;;;;2.15;79.87;96830.17;1772178;80;21044;-64
2021/10/20 00:11:54;;;;;;;5.50;3.30;;;;;;;2.05;80.38;96836.33;1771524;80;21122;-64
2021/10/20 00:14:21;;;;;;;4.60;2.70;;;;;;;1.92;81.13;96831.12;1770020;80;21024;-64
2021/10/20 00:16:48;;;;;;;3.57;2.37;;;;;;;1.95;81.09;96831.22;1774402;80;21098;-64
2021/10/20 00:19:15;;;;;;;3.37;2.60;;;;;;;2.03;80.99;96828.45;1769721;80;21049;-64
2021/10/20 00:21:42;;;;;;;4.63;2.90;;;;;;;2.10;81.13;96829.56;1769536;80;21028;-64
2021/10/20 00:24:09;;;;;;;4.77;3.00;;;;;;;2.09;81.01;96833.88;1774266;80;20995;-64
2021/10/20 00:26:37;;;;;;;4.37;2.37;;;;;;;2.10;81.13;96826.53;1771545;80;21021;-64
2021/10/20 00:29:04;;;;;;;3.40;1.97;;;;;;;2.13;80.99;96829.66;1771928;80;21099;-64
2021/10/20 00:31:31;;;;;;;3.60;2.63;;;;;;;2.03;80.28;96829.75;1769968;80;21025;-64
2021/10/20 00:33:57;;;;;;;3.43;2.27;;;;;;;1.93;80.49;96825.06;1738140;80;21095;-64
2021/10/20 00:36:24;;;;;;;2.83;2.10;;;;;;;1.91;80.96;96826.72;1771940;80;21054;-64
2021/10/20 00:38:50;;;;;;;4.97;2.10;;;;;;;1.80;81.47;96830.69;1774641;80;21133;-64
2021/10/20 00:41:17;;;;;;;4.47;2.43;;;;;;;1.74;81.44;96820.95;1772054;80;21043;-64
2021/10/20 00:43:44;;;;;;;5.63;2.90;;;;;;;1.78;81.04;96809.80;1775662;80;21027;-64
2021/10/20 00:46:10;;;;;;;3.37;2.40;;;;;;;1.89;81.19;96821.48;1769866;80;21601;-64
2021/10/20 00:48:37;;;;;;;3.47;2.60;;;;;;;1.88;81.59;96818.39;1775807;80;20979;-64
2021/10/20 00:51:04;;;;;;;4.37;2.53;;;;;;;1.85;81.35;96817.00;1770860;80;21154;-63
2021/10/20 00:53:30;;;;;;;3.67;2.20;;;;;;;1.92;81.25;96814.20;1777166;81;20992;-64
2021/10/20 00:55:56;;;;;;;4.07;2.57;;;;;;;1.92;81.03;96815.50;1772412;80;21574;-64
2021/10/20 00:58:24;;;;;;;3.00;2.10;;;;;;;1.82;80.93;96818.20;1775219;80;21127;-64
2021/10/20 01:00:50;;;;;;;4.13;2.13;;;;;;;1.83;81.10;96809.97;1772550;80;21041;-64
2021/10/20 01:03:18;;;;;;;3.57;2.53;;;;;;;1.78;80.99;96805.02;1772828;80;21031;-64
2021/10/20 01:05:45;;;;;;;3.07;2.10;;;;;;;1.69;81.05;96808.20;1770031;80;21051;-64
2021/10/20 01:08:12;;;;;;;3.53;2.30;;;;;;;1.63;81.17;96801.04;1773070;80;21018;-64
2021/10/20 01:10:38;;;;;;;3.90;2.30;;;;;;;1.75;81.53;96799.30;1769982;80;21073;-64
2021/10/20 01:13:05;;;;;;;3.43;2.43;;;;;;;1.87;81.52;96796.24;1774774;80;21010;-64
2021/10/20 01:15:32;;;;;;;4.50;2.40;;;;;;;1.95;81.42;96797.38;1774658;80;21030;-63
2021/10/20 01:17:59;;;;;;;5.00;2.30;;;;;;;2.03;81.12;96798.52;1769901;80;21017;-64
2021/10/20 01:20:31;;;;;;;3.03;2.43;;;;;;;2.02;80.95;96797.18;1770889;80;21501;-64
2021/10/20 01:22:59;;;;;;;3.13;2.43;;;;;;;2.08;81.16;96794.34;1771313;80;20974;-64
2021/10/20 01:25:26;;;;;;;3.90;2.63;;;;;;;2.14;81.09;96791.97;1769521;80;21184;-64
2021/10/20 01:27:52;;;;;;;3.47;2.03;;;;;;;2.08;80.46;96789.14;1772120;80;21031;-64
2021/10/20 01:30:19;;;;;;;4.53;2.47;;;;;;;1.98;80.17;96792.69;1772277;80;21499;-64
2021/10/20 01:32:46;;;;;;;4.13;2.00;;;;;;;1.86;80.83;96791.42;1772097;80;21023;-63
2021/10/20 01:35:12;;;;;;;5.57;2.80;;;;;;;1.86;80.79;96791.42;1774384;80;21606;-64
2021/10/20 01:37:39;;;;;;;5.80;2.70;;;;;;;1.70;81.26;96787.42;1775071;80;21046;-63
2021/10/20 01:40:08;;;;;;;4.30;2.77;;;;;;;1.59;80.92;96791.77;1774645;80;21027;-64
2021/10/20 01:42:35;;;;;;;4.10;2.67;;;;;;;1.57;81.41;96792.16;1773238;80;21020;-64
2021/10/20 01:45:08;;;;;;;3.37;2.53;;;;;;;1.58;81.69;96786.98;1771241;80;21092;-64
2021/10/20 01:47:34;;;;;;;5.40;2.87;;;;;;;1.63;81.50;96788.03;1771336;80;21543;-64
2021/10/20 01:50:02;;;;;;;3.60;2.60;;;;;;;1.67;81.13;96787.74;1770550;80;21140;-64
2021/10/20 01:52:28;;;;;;;2.90;2.07;;;;;;;1.63;81.74;96788.45;1771962;80;21084;-64
2021/10/20 01:54:55;;;;;;;2.70;1.60;;;;;;;1.64;81.56;96787.64;1769286;80;21083;-64
2021/10/20 01:57:21;;;;;;;3.93;2.20;;;;;;;1.66;81.13;96776.45;1772123;80;21086;-63
2021/10/20 01:59:48;;;;;;;4.77;2.73;;;;;;;1.61;81.17;96780.58;1770858;80;20986;-64
2021/10/20 02:02:20;;;;;;;7.67;2.97;;;;;;;1.55;81.08;96785.59;1770667;80;21029;-63
2021/10/20 02:04:48;;;;;;;3.23;2.30;;;;;;;1.47;81.50;96784.44;1773465;80;21507;-64
2021/10/20 02:07:14;;;;;;;3.93;2.40;;;;;;;1.50;81.62;96780.64;1770681;80;21052;-64
2021/10/20 02:09:41;;;;;;;3.13;2.10;;;;;;;1.54;81.84;96779.02;1772576;80;21590;-64
2021/10/20 02:12:08;;;;;;;3.97;2.60;;;;;;;1.54;81.59;96781.23;1771980;80;21026;-64
2021/10/20 02:14:36;;;;;;;2.93;2.30;;;;;;;1.38;81.70;96781.08;1771741;80;21086;-64
2021/10/20 02:17:03;;;;;;;3.93;2.20;;;;;;;1.32;81.77;96776.97;1769512;80;21065;-64
2021/10/20 02:19:30;;;;;;;2.57;1.70;;;;;;;1.38;82.12;96781.50;1771390;80;21103;-63
2021/10/20 02:21:58;;;;;;;3.50;2.10;;;;;;;1.38;81.74;96781.50;1772726;81;21007;-64
2021/10/20 02:24:25;;;;;;;3.80;2.07;;;;;;;1.39;81.87;96775.06;1776211;80;21026;-64
2021/10/20 02:26:52;;;;;;;3.10;2.20;;;;;;;1.42;81.70;96775.59;1770792;80;21053;-64
2021/10/20 02:29:19;;;;;;;4.20;2.57;;;;;;;1.55;82.17;96771.70;1773097;80;21142;-64
2021/10/20 02:31:46;;;;;;;4.57;2.90;;;;;;;1.70;82.46;96771.81;1769484;80;21499;-64
2021/10/20 02:34:19;;;;;;;3.33;2.40;;;;;;;1.75;81.66;96774.58;1770412;80;21024;-64
2021/10/20 02:36:46;;;;;;;3.62;1.80;;;;;;;1.70;80.95;96773.11;1769778;80;21027;-64
2021/10/20 02:39:13;;;;;;;4.33;2.33;;;;;;;1.58;80.41;96771.80;1774781;80;21499;-64
2021/10/20 02:41:40;;;;;;;4.93;2.50;;;;;;;1.50;80.41;96775.02;1772395;80;21015;-64
2021/10/20 02:44:07;;;;;;;2.57;1.77;;;;;;;1.46;80.64;96767.05;1772088;80;21145;-64
2021/10/20 02:46:34;;;;;;;3.53;2.30;;;;;;;1.37;80.63;96771.94;1773957;80;20978;-63
2021/10/20 02:49:01;;;;;;;3.40;2.53;;;;;;;1.34;80.91;96761.02;1773112;80;21568;-64
2021/10/20 02:51:29;;;;;;;4.40;2.97;;;;;;;1.33;81.13;96761.83;1771916;80;20985;-64
2021/10/20 02:53:57;;;;;;;5.43;2.67;;;;;;;1.27;81.54;96759.89;1769940;80;21060;-64
2021/10/20 02:56:26;;;;;;;8.00;2.83;;;;;;;1.26;81.93;96764.64;1772229;80;21073;-64
2021/10/20 02:58:54;;;;;;;3.53;2.60;;;;;;;1.23;82.00;96762.33;1769699;80;20989;-64
2021/10/20 03:01:21;;;;;;;4.23;2.40;;;;;;;1.26;82.04;96762.04;1770777;80;21061;-64
2021/10/20 03:03:48;;;;;;;4.10;2.70;;;;;;;1.33;81.93;96759.64;1774721;81;21011;-63
2021/10/20 03:06:16;;;;;;;3.47;2.17;;;;;;;1.40;81.99;96757.31;1774190;80;21011;-63
2021/10/20 03:08:43;;;;;;;2.90;2.03;;;;;;;1.46;81.66;96748.84;1769876;80;21080;-64
2021/10/20 03:11:11;;;;;;;3.63;2.10;;;;;;;1.51;81.72;96752.48;1769540;80;21025;-64
2021/10/20 03:13:38;;;;;;;3.27;2.40;;;;;;;1.42;81.16;96742.66;1772289;80;21084;-63
2021/10/20 03:16:06;;;;;;;5.97;3.90;;;;;;;1.31;81.16;96749.21;1769332;80;21021;-63
2021/10/20 03:18:34;;;;;;;3.93;3.00;;;;;;;1.20;81.45;96749.22;1773004;80;21019;-64
2021/10/20 03:21:01;;;;;;;4.17;2.50;;;;;;;1.19;81.36;96742.27;1772054;80;21097;-64
2021/10/20 03:23:27;;;;;;;3.77;2.27;;;;;;;1.22;81.66;96744.55;1770426;80;20988;-63
2021/10/20 03:25:54;;;;;;;4.43;2.60;;;;;;;1.30;82.06;96746.13;1770735;80;21043;-68
2021/10/20 03:28:21;;;;;;;2.80;2.00;;;;;;;1.38;81.99;96742.06;1771930;80;21019;-78
2021/10/20 03:30:47;;;;;;;3.67;2.43;;;;;;;1.32;81.72;96747.48;1773250;80;21050;-76
2021/10/20 03:33:14;;;;;;;2.87;2.33;;;;;;;1.29;81.61;96747.84;1770403;80;21007;-75
2021/10/20 03:35:40;;;;;;;5.40;2.67;;;;;;;1.25;81.53;96745.95;1769856;80;21116;-75
2021/10/20 03:38:07;;;;;;;2.47;1.83;;;;;;;1.32;81.79;96747.48;1769817;80;21035;-75
2021/10/20 03:40:34;;;;;;;3.17;2.20;;;;;;;1.33;81.17;96747.95;1769930;80;21579;-76
2021/10/20 03:43:02;;;;;;;14.03;7.80;;;;;;;1.28;81.47;96752.98;1774513;80;20979;-76
2021/10/20 03:45:29;;;;;;;11.73;7.57;;;;;;;1.20;81.88;96744.91;1772985;80;21098;-76
2021/10/20 03:47:56;;;;;;;7.17;4.40;;;;;;;1.12;81.61;96746.77;1772144;80;20987;-76
2021/10/20 03:50:23;;;;;;;8.70;2.70;;;;;;;1.03;82.11;96746.00;1775735;81;21003;-76
2021/10/20 03:52:50;;;;;;;5.03;3.10;;;;;;;1.01;82.58;96747.69;1776109;80;21034;-76
2021/10/20 03:55:16;;;;;;;4.47;2.53;;;;;;;1.00;82.78;96755.88;1742932;81;21089;-73
2021/10/20 03:57:43;;;;;;;7.93;5.00;;;;;;;1.01;83.20;96747.69;1770959;80;20985;-76
2021/10/20 04:00:14;;;;;;;11.37;6.67;;;;;;;0.98;83.08;96749.76;1771536;81;21577;-76
2021/10/20 04:02:43;;;;;;;10.90;6.57;;;;;;;0.99;82.73;96748.92;1771463;80;21541;-77
2021/10/20 04:05:15;;;;;;;7.93;4.17;;;;;;;0.94;82.68;96748.28;1774932;80;21058;-76
2021/10/20 04:07:43;;;;;;;3.25;2.45;;;;;;;0.90;82.94;96743.79;1774596;81;21029;-77
2021/10/20 04:10:23;;;;;;;3.30;1.97;;;;;;;0.89;82.59;96742.91;1774671;80;21536;-74
2021/10/20 04:12:51;;;;;;;7.33;2.87;;;;;;;0.87;82.80;96744.56;1769526;80;21056;-77
2021/10/20 04:15:22;;;;;;;2.57;2.00;;;;;;;0.90;83.41;96738.59;1769348;80;21034;-76
2021/10/20 04:17:49;;;;;;;2.77;2.17;;;;;;;0.88;83.28;96737.64;1773624;80;21112;-76
2021/10/20 04:20:18;;;;;;;7.70;4.83;;;;;;;0.95;83.20;96734.45;1770276;80;21031;-76
2021/10/20 04:22:46;;;;;;;5.83;3.90;;;;;;;1.06;83.70;96733.14;1774146;80;21540;-77
2021/10/20 04:25:13;;;;;;;4.20;2.37;;;;;;;1.16;83.09;96728.75;1770781;80;21050;-77
2021/10/20 04:27:41;;;;;;;5.10;2.60;;;;;;;1.14;82.73;96727.80;1775258;80;21054;-76
2021/10/20 04:30:11;;;;;;;4.40;2.97;;;;;;;1.05;82.80;96727.03;1772721;80;21099;-78
2021/10/20 04:32:38;;;;;;;4.87;2.70;;;;;;;1.10;82.95;96727.62;1773527;80;21060;-75
2021/10/20 04:35:07;;;;;;;4.43;3.20;;;;;;;1.14;83.08;96730.40;1772084;80;21021;-76
2021/10/20 04:37:34;;;;;;;3.63;2.70;;;;;;;1.21;83.13;96725.89;1770186;80;21016;-76
2021/10/20 04:40:04;;;;;;;3.23;2.43;;;;;;;1.22;82.76;96728.08;1775530;80;21445;-76
2021/10/20 04:42:31;;;;;;;4.63;2.37;;;;;;;1.17;82.66;96726.60;1773149;80;21569;-78
2021/10/20 04:44:59;;;;;;;9.17;4.53;;;;;;;1.10;83.00;96736.73;1772015;80;21569;-77
2021/10/20 04:47:26;;;;;;;44.70;11.70;;;;;;;0.87;82.20;96732.87;1771195;80;21040;-78
2021/10/20 04:49:53;;;;;;;45.33;13.20;;;;;;;0.80;82.00;96731.74;1771887;80;20999;-77
2021/10/20 04:52:22;;;;;;;12.27;5.63;;;;;;;0.78;82.70;96738.63;1769356;80;21121;-77
2021/10/20 04:54:50;;;;;;;8.97;3.60;;;;;;;0.83;83.08;96727.98;1770399;80;21091;-77
2021/10/20 04:57:17;;;;;;;3.83;2.80;;;;;;;0.88;83.42;96738.94;1771240;80;21007;-75
2021/10/20 04:59:43;;;;;;;4.53;2.83;;;;;;;0.92;83.52;96730.45;1769595;79;21138;-69
2021/10/20 05:02:10;;;;;;;3.67;3.00;;;;;;;0.99;83.55;96730.73;1769383;79;21528;-81
2021/10/20 05:04:37;;;;;;;3.57;2.60;;;;;;;0.99;83.12;96735.92;1740877;81;21038;-69
2021/10/20 05:07:04;;;;;;;9.37;3.70;;;;;;;1.04;83.11;96734.38;1773572;79;20992;-74
2021/10/20 05:09:30;;;;;;;25.63;8.37;;;;;;;0.98;82.92;96732.87;1752789;80;21136;-75
2021/10/20 05:11:57;;;;;;;4.00;2.77;;;;;;;0.98;83.01;96730.66;1774045;80;21046;-71
2021/10/20 05:14:23;;;;;;;5.07;2.73;;;;;;;0.98;82.83;96721.56;1766386;80;21057;-72
2021/10/20 05:16:50;;;;;;;11.33;4.77;;;;;;;1.00;83.24;96723.81;1774028;80;21027;-77
2021/10/20 05:19:16;;;;;;;4.07;2.37;;;;;;;1.01;83.36;96721.28;1762422;80;21006;-72
2021/10/20 05:21:43;;;;;;;11.03;3.93;;;;;;;1.01;83.44;96726.89;1766383;80;21476;-74
2021/10/20 05:24:10;;;;;;;30.33;11.50;;;;;;;0.98;83.94;96718.58;1761985;80;21075;-71
2021/10/20 05:26:37;;;;;;;11.73;5.90;;;;;;;1.12;83.79;96719.05;1762027;80;21081;-71
2021/10/20 05:29:03;;;;;;;18.40;7.20;;;;;;;1.27;83.71;96720.90;1764203;80;20986;-75
2021/10/20 05:31:31;;;;;;;22.50;10.03;;;;;;;1.34;83.28;96721.13;1763793;80;21057;-72
2021/10/20 05:33:57;;;;;;;22.37;10.50;;;;;;;1.39;82.91;96728.68;1766218;80;21046;-79
2021/10/20 05:36:24;;;;;;;28.93;14.10;;;;;;;1.36;83.06;96728.16;1774468;79;21509;-77
2021/10/20 05:38:51;;;;;;;19.80;11.53;;;;;;;1.42;83.34;96730.95;1777841;79;21056;-75
2021/10/20 05:41:17;;;;;;;15.83;9.10;;;;;;;1.43;83.46;96730.53;1782110;80;21050;-70
2021/10/20 05:43:43;;;;;;;16.00;8.53;;;;;;;1.45;83.99;96727.58;1767237;80;21074;-68
2021/10/20 05:46:10;;;;;;;9.27;5.37;;;;;;;1.49;83.84;96724.27;1771913;79;21157;-69
2021/10/20 05:48:37;;;;;;;17.50;8.97;;;;;;;1.50;83.47;96731.22;1746445;80;21109;-73
2021/10/20 05:51:04;;;;;;;19.43;9.20;;;;;;;1.54;83.89;96733.50;1772752;81;21157;-75
2021/10/20 05:53:30;;;;;;;296.00;145.60;;;;;;;1.63;83.22;96729.92;1763082;80;21034;-75
2021/10/20 05:55:57;;;;;;;69.37;32.90;;;;;;;1.67;83.03;96725.30;1761802;79;21051;-80
2021/10/20 05:58:23;;;;;;;29.40;12.73;;;;;;;1.72;83.30;96729.83;1766368;80;21062;-79
2021/10/20 06:00:50;;;;;;;31.27;15.90;;;;;;;1.79;84.08;96730.02;1778061;80;20959;-75
2021/10/20 06:03:16;;;;;;;23.93;12.23;;;;;;;1.92;84.73;96729.61;1777240;80;21102;-75
2021/10/20 06:05:43;;;;;;;24.17;13.63;;;;;;;2.03;84.38;96730.83;1773837;80;21046;-80
2021/10/20 06:08:10;;;;;;;18.70;9.90;;;;;;;2.19;84.04;96727.42;1747217;82;20979;-79
2021/10/20 06:10:36;;;;;;;17.93;10.07;;;;;;;2.27;83.87;96732.45;1747612;82;21128;-76
2021/10/20 06:13:03;;;;;;;16.40;10.23;;;;;;;2.29;83.90;96732.99;1747174;82;21014;-74
2021/10/20 06:15:29;;;;;;;11.07;7.13;;;;;;;2.43;83.96;96728.63;1745947;82;21248;-74
2021/10/20 06:17:56;;;;;;;16.87;12.37;;;;;;;2.50;83.83;96734.06;1746911;82;20991;-74
2021/10/20 06:20:22;;;;;;;20.73;11.80;;;;;;;2.55;83.65;96734.22;1746220;82;21022;-76
2021/10/20 06:22:49;;;;;;;16.90;10.57;;;;;;;2.67;83.87;96738.50;1745660;82;21591;-75
2021/10/20 06:25:15;;;;;;;14.07;8.90;;;;;;;2.82;84.04;96731.53;1747806;82;21104;-77
2021/10/20 06:27:43;;;;;;;21.80;13.43;;;;;;;2.94;83.95;96734.50;1746894;82;21164;-76
2021/10/20 06:30:10;;;;;;;21.63;14.70;;;;;;;3.06;83.80;96731.80;1748496;82;21207;-74
2021/10/20 06:32:39;;;;;;;20.37;13.90;;;;;;;3.19;83.63;96737.82;1746231;82;21579;-75
2021/10/20 06:35:06;;;;;;;16.57;9.97;;;;;;;3.29;83.34;96734.62;1746159;82;22293;-74
2021/10/20 06:37:33;;;;;;;16.93;10.10;;;;;;;3.41;83.28;96732.79;1746823;82;21563;-76
2021/10/20 06:40:01;;;;;;;15.00;10.30;;;;;;;3.54;83.27;96734.00;1747002;82;21113;-76
2021/10/20 06:42:28;;;;;;;16.93;10.53;;;;;;;3.69;83.23;96730.49;1747231;82;21066;-75
2021/10/20 06:44:56;;;;;;;19.67;13.53;;;;;;;3.84;83.18;96732.63;1745274;82;20990;-76
2021/10/20 06:47:25;;;;;;;18.07;11.73;;;;;;;3.92;82.77;96727.59;1746921;82;21030;-75
2021/10/20 06:49:52;;;;;;;16.33;10.63;;;;;;;4.03;82.76;96732.64;1746234;82;21156;-77
2021/10/20 06:52:19;;;;;;;19.83;10.47;;;;;;;4.20;82.65;96723.50;1746608;82;21088;-79
2021/10/20 06:54:45;;;;;;;15.67;10.17;;;;;;;4.39;82.55;96728.76;1746550;82;21086;-79
2021/10/20 06:57:12;;;;;;;16.47;10.37;;;;;;;4.54;82.30;96719.96;1748572;80;21499;-74
2021/10/20 06:59:39;;;;;;;16.07;10.70;;;;;;;4.67;82.50;96721.55;1764049;80;21042;-78
2021/10/20 07:02:05;;;;;;;16.43;10.27;;;;;;;4.81;82.36;96716.17;1751416;81;21087;-75
2021/10/20 07:04:32;;;;;;;16.10;10.17;;;;;;;5.03;82.38;96711.42;1754627;81;21157;-78
2021/10/20 07:06:58;;;;;;;18.30;9.90;;;;;;;5.19;81.84;96710.47;1763943;80;21105;-79
2021/10/20 07:09:25;;;;;;;20.47;12.67;;;;;;;5.32;81.66;96707.66;1771242;80;21101;-77
2021/10/20 07:11:52;;;;;;;12.77;9.13;;;;;;;5.56;81.64;96705.05;1767881;80;21026;-78
2021/10/20 07:14:19;;;;;;;18.43;11.97;;;;;;;5.77;81.52;96707.16;1773303;80;21062;-78
2021/10/20 07:16:45;;;;;;;13.60;9.03;;;;;;;6.02;81.54;96701.56;1773491;80;21112;-73
2021/10/20 07:19:12;;;;;;;13.40;9.43;;;;;;;6.19;80.77;96706.18;1771233;80;20986;-75
2021/10/20 07:21:38;;;;;;;18.70;11.90;;;;;;;6.26;80.27;96698.44;1771098;80;21555;-81
2021/10/20 07:24:05;;;;;;;17.10;8.60;;;;;;;6.41;80.34;96692.55;1765478;80;21061;-76
2021/10/20 07:26:32;;;;;;;16.00;9.80;;;;;;;6.49;79.53;96692.67;1773523;81;21056;-76
2021/10/20 07:28:59;;;;;;;16.43;10.77;;;;;;;6.55;79.63;96692.78;1769382;80;21062;-69
2021/10/20 07:31:29;;;;;;;14.70;10.63;;;;;;;6.72;80.03;96699.55;1768488;80;21515;-83
2021/10/20 07:33:54;;;;;;;25.27;16.53;;;;;;;6.93;80.15;96678.00;1773330;79;21134;-78
2021/10/20 07:36:21;;;;;;;26.60;19.27;;;;;;;7.21;79.96;96673.97;1771147;80;20974;-78
2021/10/20 07:38:48;;;;;;;14.43;9.77;;;;;;;7.32;78.68;96665.77;1744515;81;21156;-87
2021/10/20 07:41:15;;;;;;;10.73;8.23;;;;;;;7.52;78.93;96671.23;1774559;81;21106;-85
2021/10/20 07:43:42;;;;;;;13.13;8.20;;;;;;;7.69;77.23;96666.61;1777573;81;21117;-73
2021/10/20 07:46:09;;;;;;;11.20;8.20;;;;;;;7.82;76.97;96671.10;1765312;80;21084;-75
2021/10/20 07:48:35;;;;;;;20.33;13.50;;;;;;;7.95;76.49;96664.20;1771611;80;21058;-72
2021/10/20 07:51:02;;;;;;;16.07;12.60;;;;;;;8.10;76.56;96665.66;1765164;80;21037;-74
2021/10/20 07:53:29;;;;;;;13.10;9.93;;;;;;;8.17;75.43;96658.27;1763629;80;21099;-73
2021/10/20 07:55:55;;;;;;;10.87;6.73;;;;;;;8.29;75.89;96656.17;1773425;80;21022;-72
2021/10/20 07:58:22;;;;;;;8.53;6.60;;;;;;;8.48;75.67;96658.52;1772390;80;21031;-70
2021/10/20 08:00:48;;;;;;;9.23;6.73;;;;;;;8.58;74.89;96656.38;1765475;80;21023;-81
2021/10/20 08:03:16;;;;;;;13.90;7.57;;;;;;;8.70;75.02;96649.45;1765831;80;21563;-84
2021/10/20 08:05:42;;;;;;;9.30;6.60;;;;;;;8.85;74.47;96646.45;1778659;80;21002;-78
2021/10/20 08:08:10;;;;;;;9.60;6.17;;;;;;;9.02;74.09;96642.59;1779758;80;21139;-78
2021/10/20 08:10:40;;;;;;;11.57;7.00;;;;;;;9.20;72.83;96637.84;1746066;82;21137;-75
2021/10/20 08:13:07;;;;;;;12.37;7.37;;;;;;;9.41;73.51;96635.69;1717731;82;21024;-77
2021/10/20 08:15:34;;;;;;;12.60;6.93;;;;;;;9.66;72.75;96634.44;1716314;83;21070;-75
2021/10/20 08:18:04;;;;;;;11.30;7.13;;;;;;;9.86;70.58;96633.15;1716579;82;21066;-73
2021/10/20 08:20:32;;;;;;;9.57;6.87;;;;;;;10.06;71.78;96626.13;1777647;80;21114;-74
2021/10/20 08:22:59;;;;;;;11.77;7.57;;;;;;;10.32;71.21;96624.81;1747132;82;21104;-80
2021/10/20 08:25:26;;;;;;;12.87;8.70;;;;;;;10.53;71.24;96621.70;1745505;82;21137;-70
2021/10/20 08:27:53;;;;;;;12.17;7.93;;;;;;;10.69;66.55;96622.56;1778810;80;21025;-71
2021/10/20 08:30:20;;;;;;;14.27;10.17;;;;;;;10.88;69.04;96615.45;1750413;82;21010;-74
2021/10/20 08:32:56;;;;;;;10.13;7.07;;;;;;;11.18;66.54;96611.36;1747796;82;21109;-72
2021/10/20 08:35:23;;;;;;;10.13;7.13;;;;;;;11.43;67.51;96605.50;1716960;83;21036;-78
2021/10/20 08:38:00;;;;;;;15.37;9.63;;;;;;;11.66;67.15;96613.29;1715660;82;21442;-78
2021/10/20 08:40:29;;;;;;;10.30;7.90;;;;;;;11.79;62.71;96611.89;1717749;82;21015;-73
2021/10/20 08:42:57;;;;;;;8.93;6.53;;;;;;;11.96;62.92;96603.88;1779810;80;21095;-69
2021/10/20 08:45:25;;;;;;;7.63;5.00;;;;;;;12.13;62.78;96604.62;1775712;80;21072;-73
2021/10/20 08:47:52;;;;;;;7.70;5.20;;;;;;;12.26;61.52;96596.99;1747029;82;21148;-77
2021/10/20 08:50:23;;;;;;;8.90;5.77;;;;;;;12.37;62.82;96598.20;1747052;82;21078;-74
2021/10/20 08:52:51;;;;;;;9.30;7.23;;;;;;;12.52;61.70;96600.73;1716945;82;21106;-71
2021/10/20 08:55:20;;;;;;;9.98;6.35;;;;;;;12.65;61.41;96606.78;1779710;80;21021;-72
2021/10/20 08:57:50;;;;;;;10.30;5.92;;;;;;;12.78;61.05;96608.39;1746943;82;21109;-72
2021/10/20 09:00:19;;;;;;;7.05;5.22;;;;;;;12.87;60.27;96604.75;1716003;82;21654;-77
2021/10/20 09:02:47;;;;;;;7.08;4.80;;;;;;;12.98;60.34;96602.00;1779255;80;21006;-71
2021/10/20 09:05:21;;;;;;;7.42;5.30;;;;;;;13.08;59.85;96608.94;1778362;80;20970;-73
2021/10/20 09:07:51;;;;;;;8.83;5.67;;;;;;;13.15;58.31;96610.62;1779744;80;21097;-73
2021/10/20 09:10:18;;;;;;;13.05;6.30;;;;;;;13.27;58.21;96614.03;1744885;82;21093;-73
2021/10/20 09:12:44;;;;;;;10.63;7.72;;;;;;;13.34;59.25;96613.93;1718659;83;21034;-72
2021/10/20 09:15:18;;;;;;;9.20;5.00;;;;;;;13.47;58.97;96617.30;1779077;80;21049;-73
2021/10/20 09:17:58;;;;;;;7.65;5.45;;;;;;;13.56;57.30;96615.84;1746098;82;21065;-73
2021/10/20 09:20:32;;;;;;;7.50;5.47;;;;;;;13.71;58.44;96613.86;1711947;82;21113;-73
2021/10/20 09:23:14;;;;;;;10.43;5.28;;;;;;;13.78;58.25;96608.47;1778107;80;20990;-71
2021/10/20 09:25:58;;;;;;;8.78;5.40;;;;;;;13.88;57.02;96596.38;1746166;82;21152;-72
2021/10/20 09:28:32;;;;;;;6.42;5.22;;;;;;;13.96;56.16;96596.70;1715820;83;21090;-71
2021/10/20 09:31:03;;;;;;;7.15;5.15;;;;;;;13.95;55.54;96600.23;1779797;80;21053;-70
2021/10/20 09:33:37;;;;;;;6.95;4.75;;;;;;;14.08;55.88;96598.25;1756850;80;21041;-71
2021/10/20 09:36:08;;;;;;;8.33;4.70;;;;;;;14.14;56.75;96598.17;1746361;82;21519;-71
2021/10/20 09:38:42;;;;;;;7.15;4.58;;;;;;;14.17;55.73;96595.91;1781065;80;20963;-70
2021/10/20 09:41:09;;;;;;;6.62;5.03;;;;;;;14.15;55.75;96597.25;1778172;80;21022;-70
2021/10/20 09:43:54;;;;;;;6.62;4.75;;;;;;;14.31;55.74;96587.70;1780277;80;21039;-70
2021/10/20 09:46:36;;;;;;;9.25;7.12;;;;;;;14.48;56.07;96584.30;1746201;82;21144;-71
2021/10/20 09:49:22;;;;;;;7.03;5.30;;;;;;;14.58;54.53;96579.27;1779872;80;21049;-73
2021/10/20 09:51:58;;;;;;;7.35;5.35;;;;;;;14.64;54.49;96571.64;1778934;80;21124;-73
2021/10/20 09:54:29;;;;;;;9.90;5.30;;;;;;;14.70;53.09;96567.09;1747153;82;21026;-73
2021/10/20 09:56:59;;;;;;;7.40;5.62;;;;;;;14.76;53.03;96566.55;1717983;83;21043;-73
2021/10/20 09:59:28;;;;;;;8.30;5.80;;;;;;;14.74;52.57;96559.96;1718584;81;21105;-72
2021/10/20 10:01:55;;;;;;;8.70;5.97;;;;;;;14.75;52.97;96548.87;1718830;83;21481;-72
2021/10/20 10:04:22;;;;;;;7.55;5.37;;;;;;;14.85;52.30;96549.98;1779771;80;20998;-72
2021/10/20 10:06:50;;;;;;;10.53;4.92;;;;;;;14.99;53.38;96553.67;1779517;80;21128;-72
2021/10/20 10:09:17;;;;;;;7.70;4.85;;;;;;;15.06;51.74;96556.63;1747317;82;21019;-72
2021/10/20 10:11:57;;;;;;;7.42;4.33;;;;;;;15.31;53.02;96561.44;1745303;82;21562;-73
2021/10/20 10:14:32;;;;;;;8.55;6.10;;;;;;;15.54;48.78;96548.48;1779280;80;21018;-71
2021/10/20 10:17:02;;;;;;;8.63;5.78;;;;;;;15.88;48.87;96536.23;1748027;82;20995;-72
2021/10/20 10:19:32;;;;;;;8.40;5.30;;;;;;;16.24;49.47;96542.41;1780890;80;21519;-72
2021/10/20 10:21:58;;;;;;;12.53;6.50;;;;;;;16.48;46.05;96539.58;1745925;82;21519;-73
2021/10/20 10:24:35;;;;;;;8.88;6.35;;;;;;;16.76;47.16;96535.69;1748139;82;21046;-73
2021/10/20 10:27:09;;;;;;;14.45;5.53;;;;;;;17.22;48.33;96534.39;1781012;80;21504;-72
2021/10/20 10:30:03;;;;;;;8.65;5.47;;;;;;;17.68;45.73;96522.77;1780243;80;21010;-72
2021/10/20 10:32:33;;;;;;;7.50;4.72;;;;;;;17.94;45.62;96519.27;1747877;82;20978;-72
2021/10/20 10:35:05;;;;;;;7.53;5.00;;;;;;;18.33;45.89;96516.20;1718878;82;20999;-72
2021/10/20 10:37:35;;;;;;;13.65;5.72;;;;;;;18.69;43.68;96511.81;1716453;82;21112;-72
2021/10/20 10:40:22;;;;;;;9.33;5.22;;;;;;;19.11;44.13;96509.40;1778650;80;21009;-72
2021/10/20 10:42:51;;;;;;;9.48;6.15;;;;;;;19.35;41.58;96504.93;1779309;80;21371;-73
2021/10/20 10:45:23;;;;;;;10.75;5.37;;;;;;;19.67;42.08;96496.97;1747249;82;21480;-72
2021/10/20 10:48:09;;;;;;;;;;;;;;;19.84;41.37;96503.00;1721032;82;21038;-72
2021/10/20 10:50:49;;;;;;;7.15;5.22;;;;;;;20.06;41.53;96502.13;1717438;82;20400;-72
2021/10/20 10:53:33;;;;;;;9.08;5.05;;;;;;;20.37;42.20;96508.39;1718240;82;21608;-71
2021/10/20 10:56:13;;;;;;;8.90;5.65;;;;;;;20.65;39.96;96501.39;1781549;80;21010;-72
2021/10/20 10:59:04;;;;;;;7.15;6.00;;;;;;;20.60;37.79;96498.04;1780819;80;21464;-72
2021/10/20 11:01:49;;;;;;;6.15;5.55;;;;;;;20.94;38.78;96489.38;1780204;80;21085;-72
2021/10/20 11:04:29;;;;;;;11.85;5.53;;;;;;;21.09;36.49;96475.73;1746856;82;21572;-73
2021/10/20 11:06:56;;;;;;;7.97;5.10;;;;;;;21.32;37.08;96477.34;1717094;82;21035;-72
2021/10/20 11:09:32;;;;;;;5.53;4.90;;;;;;;21.23;34.48;96469.70;1779293;80;21017;-72
2021/10/20 11:12:01;;;;;;;8.33;5.25;;;;;;;21.24;34.44;96462.03;1746996;82;21109;-73
2021/10/20 11:14:30;;;;;;;10.08;5.60;;;;;;;21.42;35.96;96458.12;1717761;83;21051;-73
2021/10/20 11:17:10;;;;;;;7.42;5.80;;;;;;;21.75;35.01;96452.95;1717959;82;21575;-72
2021/10/20 11:19:38;;;;;;;12.68;8.58;;;;;;;22.08;36.14;96450.88;1779494;80;21011;-73
2021/10/20 11:22:06;;;;;;;8.80;5.00;;;;;;;22.19;34.18;96447.16;1749046;82;21093;-73
2021/10/20 11:24:34;;;;;;;13.25;5.55;;;;;;;22.30;34.49;96444.83;1718809;83;21039;-73
2021/10/20 11:27:05;;;;;;;11.22;6.22;;;;;;;22.45;33.25;96431.93;1717765;83;21099;-73
2021/10/20 11:29:45;;;;;;;10.35;5.75;;;;;;;22.37;33.75;96434.13;1779131;80;21049;-73
2021/10/20 11:32:15;;;;;;;12.47;5.10;;;;;;;22.56;34.44;96430.50;1749478;82;21060;-73
2021/10/20 11:34:44;;;;;;;12.43;6.25;;;;;;;22.73;33.12;96425.09;1718000;82;21026;-73
2021/10/20 11:37:13;;;;;;;8.93;6.55;;;;;;;22.83;34.19;96433.06;1780416;80;21128;-73
2021/10/20 11:39:43;;;;;;;12.05;5.62;;;;;;;22.79;31.84;96424.75;1784561;79;21017;-73
2021/10/20 11:42:12;;;;;;;6.30;5.35;;;;;;;23.21;33.82;96425.19;1781862;79;21010;-73